createdAt,value
2023-01-26T00:02:24.154Z,102480.78
2023-01-26T00:04:50.906Z,102482.47
2023-01-26T00:07:17.620Z,102473.69
2023-01-26T00:09:44.371Z,102469.28
2023-01-26T00:12:11.169Z,102464.97
2023-01-26T00:14:51.721Z,102454.44
2023-01-26T00:17:30.538Z,102461.50
2023-01-26T00:19:58.665Z,102465.91
2023-01-26T00:22:34.327Z,102454.78
2023-01-26T00:25:00.998Z,102464.47
2023-01-26T00:27:27.619Z,102445.28
2023-01-26T00:29:55.783Z,102445.28
2023-01-26T00:32:22.709Z,102443.59
2023-01-26T00:34:49.472Z,102445.28
2023-01-26T00:37:16.286Z,102435.81
2023-01-26T00:39:43.231Z,102434.97
2023-01-26T00:42:11.306Z,102434.91
2023-01-26T00:44:38.879Z,102432.19
2023-01-26T00:47:10.256Z,102428.75
2023-01-26T00:49:38.771Z,102421.81
2023-01-26T00:52:05.984Z,102418.34
2023-01-26T00:54:33.306Z,102418.34
2023-01-26T00:57:00.234Z,102435.81
2023-01-26T00:59:27.256Z,102433.13
2023-01-26T01:01:55.711Z,102437.50
2023-01-26T01:04:24.132Z,102432.19
2023-01-26T01:06:51.994Z,102429.75
2023-01-26T01:09:19.029Z,102430.59
2023-01-26T01:11:45.853Z,102426.19
2023-01-26T01:14:13.440Z,102425.28
2023-01-26T01:16:40.798Z,102423.50
2023-01-26T01:19:08.528Z,102420.81
2023-01-26T01:21:36.743Z,102417.25
2023-01-26T01:24:03.909Z,102411.06
2023-01-26T01:26:30.915Z,102412.75
2023-01-26T01:28:57.643Z,102420.63
2023-01-26T01:31:26.271Z,102420.72
2023-01-26T01:33:54.142Z,102425.13
2023-01-26T01:36:21.125Z,102429.50
2023-01-26T01:38:50.609Z,102418.94
2023-01-26T01:41:20.588Z,102411.91
2023-01-26T01:43:47.289Z,102413.59
2023-01-26T01:46:21.186Z,102418.84
2023-01-26T01:48:53.763Z,102416.31
2023-01-26T01:54:11.863Z,102417.16
2023-01-26T01:56:43.597Z,102413.59
2023-01-26T01:59:13.064Z,102407.44
2023-01-26T02:01:40.306Z,102402.22
2023-01-26T02:04:08.197Z,102402.22
2023-01-26T02:06:39.567Z,102400.34
2023-01-26T02:09:08.985Z,102395.97
2023-01-26T02:11:40.618Z,102395.97
2023-01-26T02:18:04.542Z,102388.19
2023-01-26T02:20:38.224Z,102389.03
2023-01-26T02:23:12.426Z,102392.50
2023-01-26T02:25:45.416Z,102384.56
2023-01-26T02:28:13.798Z,102383.59
2023-01-26T02:30:40.941Z,102386.22
2023-01-26T02:33:08.968Z,102383.59
2023-01-26T02:36:23.947Z,102384.47
2023-01-26T02:38:59.194Z,102382.69
2023-01-26T02:41:45.289Z,102376.59
2023-01-26T02:44:14.749Z,102380.91
2023-01-26T02:46:41.700Z,102372.97
2023-01-26T02:49:26.960Z,102373.06
2023-01-26T02:51:53.692Z,102387.06
2023-01-26T02:54:53.477Z,102383.59
2023-01-26T02:57:38.651Z,102387.91
2023-01-26T03:00:11.129Z,102394.94
2023-01-26T03:02:38.456Z,102382.78
2023-01-26T03:05:05.555Z,102381.00
2023-01-26T03:07:32.491Z,102387.00
2023-01-26T03:09:59.307Z,102384.28
2023-01-26T03:12:26.682Z,102391.22
2023-01-26T03:15:12.313Z,102385.06
2023-01-26T03:17:41.688Z,102378.91
2023-01-26T03:20:29.466Z,102388.41
2023-01-26T03:23:31.679Z,102377.22
2023-01-26T03:26:16.789Z,102380.75
2023-01-26T03:28:43.472Z,102369.34
2023-01-26T03:31:10.318Z,102375.44
2023-01-26T03:33:38.409Z,102373.53
2023-01-26T03:36:06.008Z,102370.94
2023-01-26T03:38:32.727Z,102377.00
2023-01-26T03:41:18.217Z,102373.47
2023-01-26T03:44:03.595Z,102378.72
2023-01-26T03:46:48.744Z,102370.09
2023-01-26T03:49:35.400Z,102367.38
2023-01-26T03:52:20.430Z,102370.00
2023-01-26T03:55:05.827Z,102369.06
2023-01-26T03:57:32.515Z,102363.84
2023-01-26T03:59:59.476Z,102369.91
2023-01-26T04:02:44.701Z,102372.53
2023-01-26T04:05:31.510Z,102371.63
2023-01-26T04:08:21.715Z,102370.69
2023-01-26T04:10:51.136Z,102375.00
2023-01-26T04:13:36.902Z,102375.94
2023-01-26T04:16:22.565Z,102376.66
2023-01-26T04:19:08.113Z,102375.00
2023-01-26T04:21:37.085Z,102370.56
2023-01-26T04:24:16.805Z,102376.66
2023-01-26T04:26:44.732Z,102369.66
2023-01-26T04:29:13.200Z,102376.50
2023-01-26T04:31:41.303Z,102369.50
2023-01-26T04:34:11.839Z,102370.13
2023-01-26T04:36:40.483Z,102370.91
2023-01-26T04:39:07.864Z,102376.06
2023-01-26T04:41:34.704Z,102368.19
2023-01-26T04:44:01.394Z,102369.91
2023-01-26T04:46:28.233Z,102364.66
2023-01-26T04:48:55.088Z,102356.88
2023-01-26T04:51:23.047Z,102366.50
2023-01-26T04:53:51.568Z,102357.72
2023-01-26T04:56:22.677Z,102363.81
2023-01-26T04:58:49.528Z,102370.75
2023-01-26T05:01:16.716Z,102366.25
2023-01-26T05:03:43.634Z,102361.84
2023-01-26T05:06:10.677Z,102356.53
2023-01-26T05:08:38.223Z,102358.22
2023-01-26T05:11:06.673Z,102351.19
2023-01-26T05:13:35.976Z,102348.56
2023-01-26T05:16:03.269Z,102351.97
2023-01-26T05:18:30.491Z,102355.31
2023-01-26T05:20:57.541Z,102347.44
2023-01-26T05:23:24.358Z,102351.75
2023-01-26T05:25:51.291Z,102354.47
2023-01-26T05:28:19.306Z,102353.63
2023-01-26T05:30:47.940Z,102349.22
2023-01-26T05:33:16.068Z,102344.19
2023-01-26T05:35:42.977Z,102349.34
2023-01-26T05:38:09.868Z,102349.34
2023-01-26T05:40:36.906Z,102344.84
2023-01-26T05:43:03.683Z,102341.28
2023-01-26T05:45:31.753Z,102348.22
2023-01-26T05:47:58.665Z,102351.59
2023-01-26T05:50:25.389Z,102346.34
2023-01-26T05:52:52.147Z,102346.28
2023-01-26T05:55:19.129Z,102345.44
2023-01-26T05:57:45.871Z,102339.22
2023-01-26T06:00:14.146Z,102352.25
2023-01-26T06:02:42.346Z,102357.50
2023-01-26T06:05:10.080Z,102358.34
2023-01-26T06:07:37.290Z,102360.88
2023-01-26T06:10:04.279Z,102362.56
2023-01-26T06:12:35.520Z,102364.25
2023-01-26T06:15:02.722Z,102362.38
2023-01-26T06:17:29.558Z,102359.66
2023-01-26T06:19:58.021Z,102351.72
2023-01-26T06:22:24.994Z,102355.19
2023-01-26T06:24:51.912Z,102359.59
2023-01-26T06:27:19.333Z,102355.19
2023-01-26T06:29:46.498Z,102360.34
2023-01-26T06:32:14.099Z,102362.84
2023-01-26T06:34:41.052Z,102360.16
2023-01-26T06:37:09.321Z,102365.38
2023-01-26T06:39:36.494Z,102367.09
2023-01-26T06:42:03.451Z,102365.31
2023-01-26T06:44:30.373Z,102373.16
2023-01-26T06:46:57.112Z,102381.03
2023-01-26T06:49:24.068Z,102376.63
2023-01-26T06:51:57.305Z,102389.75
2023-01-26T06:54:25.558Z,102384.34
2023-01-26T06:56:55.228Z,102382.53
2023-01-26T06:59:22.022Z,102382.66
2023-01-26T07:01:49.755Z,102385.25
2023-01-26T07:04:17.227Z,102388.63
2023-01-26T07:06:44.239Z,102391.25
2023-01-26T07:09:11.528Z,102390.50
2023-01-26T07:11:39.636Z,102383.38
2023-01-26T07:14:06.652Z,102393.78
2023-01-26T07:16:34.008Z,102392.84
2023-01-26T07:19:01.045Z,102388.44
2023-01-26T07:21:27.814Z,102391.00
2023-01-26T07:23:56.106Z,102386.69
2023-01-26T07:26:23.054Z,102384.91
2023-01-26T07:28:51.134Z,102384.81
2023-01-26T07:31:18.022Z,102376.75
2023-01-26T07:33:44.845Z,102389.03
2023-01-26T07:36:11.658Z,102391.56
2023-01-26T07:38:38.376Z,102396.72
2023-01-26T07:41:07.889Z,102398.50
2023-01-26T07:43:35.546Z,102401.03
2023-01-26T07:46:04.835Z,102397.38
2023-01-26T07:48:32.158Z,102401.69
2023-01-26T07:51:00.001Z,102407.84
2023-01-26T07:53:29.375Z,102411.31
2023-01-26T07:56:06.996Z,102410.38
2023-01-26T07:58:35.529Z,102405.06
2023-01-26T08:01:09.290Z,102409.47
2023-01-26T08:03:36.320Z,102412.84
2023-01-26T08:06:03.342Z,102409.28
2023-01-26T08:08:30.713Z,102417.25
2023-01-26T08:10:58.486Z,102415.56
2023-01-26T08:13:34.678Z,102419.88
2023-01-26T08:16:03.695Z,102416.19
2023-01-26T08:18:32.253Z,102416.97
2023-01-26T08:21:00.460Z,102420.34
2023-01-26T08:23:27.672Z,102421.28
2023-01-26T08:25:54.582Z,102421.19
2023-01-26T08:28:22.809Z,102420.25
2023-01-26T08:30:49.946Z,102424.53
2023-01-26T08:33:16.688Z,102415.94
2023-01-26T08:35:44.965Z,102428.00
2023-01-26T08:38:11.802Z,102418.47
2023-01-26T08:40:38.793Z,102420.16
2023-01-26T08:43:05.686Z,102414.81
2023-01-26T08:45:32.752Z,102416.59
2023-01-26T08:47:59.633Z,102417.44
2023-01-26T08:50:26.674Z,102419.22
2023-01-26T08:52:57.425Z,102415.56
2023-01-26T08:55:24.296Z,102413.13
2023-01-26T08:57:55.248Z,102421.75
2023-01-26T09:00:24.320Z,102416.50
2023-01-26T09:02:51.890Z,102425.13
2023-01-26T09:05:18.815Z,102417.19
2023-01-26T09:07:45.788Z,102418.00
2023-01-26T09:10:14.307Z,102414.66
2023-01-26T09:12:41.360Z,102421.59
2023-01-26T09:15:09.419Z,102424.94
2023-01-26T09:17:37.190Z,102417.75
2023-01-26T09:20:05.043Z,102420.16
2023-01-26T09:22:31.892Z,102427.88
2023-01-26T09:24:58.690Z,102432.19
2023-01-26T09:27:26.931Z,102431.13
2023-01-26T09:29:54.081Z,102435.66
2023-01-26T09:32:20.800Z,102435.56
2023-01-26T09:34:47.779Z,102431.13
2023-01-26T09:37:15.083Z,102431.06
2023-01-26T09:39:44.496Z,102432.66
2023-01-26T09:42:44.238Z,102438.66
2023-01-26T09:45:26.823Z,102431.63
2023-01-26T09:48:12.212Z,102427.97
2023-01-26T09:50:45.147Z,102427.78
2023-01-26T09:53:17.111Z,102420.56
2023-01-26T09:55:46.527Z,102422.16
2023-01-26T09:58:22.200Z,102429.03
2023-01-26T10:00:53.259Z,102427.97
2023-01-26T10:03:25.974Z,102425.16
2023-01-26T10:05:58.466Z,102429.28
2023-01-26T10:08:26.972Z,102439.59
2023-01-26T10:10:57.229Z,102434.06
2023-01-26T10:13:26.215Z,102434.72
2023-01-26T10:15:58.071Z,102434.44
2023-01-26T10:18:30.201Z,102427.97
2023-01-26T10:20:59.935Z,102428.53
2023-01-26T10:23:29.918Z,102431.81
2023-01-26T10:26:02.075Z,102424.47
2023-01-26T10:28:30.867Z,102433.00
2023-01-26T10:30:58.152Z,102432.81
2023-01-26T10:33:28.033Z,102440.41
2023-01-26T10:35:55.056Z,102434.94
2023-01-26T10:38:40.608Z,102429.41
2023-01-26T10:41:21.910Z,102423.88
2023-01-26T10:43:54.345Z,102430.50
2023-01-26T10:46:28.075Z,102430.31
2023-01-26T10:48:56.149Z,102423.06
2023-01-26T10:51:30.513Z,102425.41
2023-01-26T10:54:14.399Z,102424.25
2023-01-26T10:56:44.785Z,102430.19
2023-01-26T10:59:21.615Z,102429.13
2023-01-26T11:01:53.807Z,102420.97
2023-01-26T11:04:21.120Z,102428.63
2023-01-26T11:06:48.006Z,102427.50
2023-01-26T11:09:20.289Z,102422.03
2023-01-26T11:11:57.914Z,102415.50
2023-01-26T11:14:26.185Z,102418.88
2023-01-26T11:16:59.302Z,102412.38
2023-01-26T11:19:43.433Z,102426.09
2023-01-26T11:22:11.999Z,102424.91
2023-01-26T11:24:47.214Z,102422.94
2023-01-26T11:27:31.133Z,102418.13
2023-01-26T11:30:17.634Z,102424.66
2023-01-26T11:32:56.476Z,102422.53
2023-01-26T11:35:32.568Z,102417.72
2023-01-26T11:38:14.470Z,102416.44
2023-01-26T11:40:47.407Z,102412.44
2023-01-26T11:43:47.550Z,102416.44
2023-01-26T11:46:33.562Z,102415.91
2023-01-26T11:49:17.196Z,102409.50
2023-01-26T11:51:55.311Z,102414.25
2023-01-26T11:54:34.429Z,102412.97
2023-01-26T11:57:09.658Z,102413.47
2023-01-26T11:59:41.616Z,102410.41
2023-01-26T12:02:28.241Z,102411.66
2023-01-26T12:04:59.059Z,102401.53
2023-01-26T12:07:30.247Z,102407.94
2023-01-26T12:10:02.302Z,102405.63
2023-01-26T12:12:32.982Z,102402.53
2023-01-26T12:15:06.044Z,102404.03
2023-01-26T12:17:45.574Z,102385.22
2023-01-26T12:20:28.068Z,102385.63
2023-01-26T12:23:03.151Z,102375.47
2023-01-26T12:25:34.360Z,102385.44
2023-01-26T12:28:11.564Z,102377.19
2023-01-26T12:30:46.363Z,102374.00
2023-01-26T12:33:15.293Z,102373.31
2023-01-26T12:36:06.463Z,102360.28
2023-01-26T12:38:47.320Z,102353.50
2023-01-26T12:41:19.664Z,102344.97
2023-01-26T12:43:57.365Z,102340.81
2023-01-26T12:46:27.011Z,102337.50
2023-01-26T12:48:57.892Z,102334.25
2023-01-26T12:51:30.169Z,102333.66
2023-01-26T12:54:02.665Z,102331.28
2023-01-26T12:56:35.405Z,102334.16
2023-01-26T12:59:09.608Z,102338.69
2023-01-26T13:01:40.890Z,102321.53
2023-01-26T13:04:12.647Z,102337.50
2023-01-26T13:06:39.564Z,102329.09
2023-01-26T13:09:22.811Z,102327.50
2023-01-26T13:11:52.578Z,102323.53
2023-01-26T13:14:45.621Z,102319.44
2023-01-26T13:17:47.731Z,102325.22
2023-01-26T13:20:46.975Z,102323.88
2023-01-26T13:23:52.408Z,102317.34
2023-01-26T13:26:43.531Z,102321.28
2023-01-26T13:29:34.928Z,102314.81
2023-01-26T13:32:55.232Z,102310.09
2023-01-26T13:35:24.614Z,102315.03
2023-01-26T13:37:59.235Z,102324.50
2023-01-26T13:40:32.293Z,102319.69
2023-01-26T13:43:20.738Z,102318.59
2023-01-26T13:46:02.017Z,102309.56
2023-01-26T13:48:40.112Z,102314.59
2023-01-26T13:51:11.527Z,102318.91
2023-01-26T13:53:41.978Z,102318.56
2023-01-26T13:56:22.248Z,102318.28
2023-01-26T13:58:50.483Z,102321.75
2023-01-26T14:01:17.599Z,102312.75
2023-01-26T14:03:48.406Z,102319.72
2023-01-26T14:06:18.649Z,102314.16
2023-01-26T14:08:53.774Z,102313.91
2023-01-26T14:11:22.791Z,102314.75
2023-01-26T14:13:57.304Z,102312.78
2023-01-26T14:16:28.711Z,102314.47
2023-01-26T14:19:06.731Z,102315.06
2023-01-26T14:21:46.632Z,102317.59
2023-01-26T14:24:13.960Z,102318.28
2023-01-26T14:26:44.160Z,102314.56
2023-01-26T14:29:19.141Z,102312.75
2023-01-26T14:31:48.033Z,102309.97
2023-01-26T14:34:21.133Z,102313.31
2023-01-26T14:36:48.076Z,102317.66
2023-01-26T14:39:20.203Z,102314.88
2023-01-26T14:41:51.354Z,102321.13
2023-01-26T14:44:19.630Z,102309.59
2023-01-26T14:46:57.003Z,102319.22
2023-01-26T14:49:33.134Z,102319.22
2023-01-26T14:52:00.177Z,102322.69
2023-01-26T14:54:31.820Z,102321.84
2023-01-26T14:57:00.479Z,102333.28
2023-01-26T14:59:41.046Z,102333.28
2023-01-26T15:02:15.728Z,102330.75
2023-01-26T15:04:47.115Z,102335.09
2023-01-26T15:07:33.403Z,102324.50
2023-01-26T15:10:00.673Z,102328.94
2023-01-26T15:12:28.123Z,102332.44
2023-01-26T15:14:59.101Z,102336.06
2023-01-26T15:17:36.150Z,102337.00
2023-01-26T15:20:03.474Z,102325.72
2023-01-26T15:22:30.450Z,102326.69
2023-01-26T15:25:19.122Z,102335.59
2023-01-26T15:27:51.278Z,102331.16
2023-01-26T15:30:25.717Z,102322.38
2023-01-26T15:32:52.950Z,102323.34
2023-01-26T15:35:22.995Z,102317.22
2023-01-26T15:37:59.279Z,102321.66
2023-01-26T15:40:26.151Z,102330.56
2023-01-26T15:43:05.872Z,102330.56
2023-01-26T15:45:36.439Z,102323.47
2023-01-26T15:48:03.370Z,102329.59
2023-01-26T15:50:30.231Z,102324.31
2023-01-26T15:52:57.079Z,102319.00
2023-01-26T15:55:26.994Z,102326.81
2023-01-26T15:57:53.800Z,102326.69
2023-01-26T16:00:20.898Z,102331.84
2023-01-26T16:02:49.036Z,102336.28
2023-01-26T16:05:18.587Z,102338.13
2023-01-26T16:07:45.994Z,102333.94
2023-01-26T16:10:12.898Z,102335.59
2023-01-26T16:12:39.774Z,102343.53
2023-01-26T16:15:27.628Z,102352.56
2023-01-26T16:17:56.023Z,102355.22
2023-01-26T16:20:23.137Z,102355.22
2023-01-26T16:22:49.956Z,102357.13
2023-01-26T16:25:23.766Z,102353.53
2023-01-26T16:27:50.800Z,102351.84
2023-01-26T16:30:18.139Z,102363.28
2023-01-26T16:32:45.443Z,102360.78
2023-01-26T16:35:15.493Z,102352.97
2023-01-26T16:37:42.872Z,102357.41
2023-01-26T16:40:12.119Z,102367.28
2023-01-26T16:42:40.842Z,102367.28
2023-01-26T16:45:15.438Z,102360.19
2023-01-26T16:47:42.525Z,102360.31
2023-01-26T16:50:10.267Z,102369.94
2023-01-26T16:52:40.528Z,102361.16
2023-01-26T16:55:12.901Z,102369.94
2023-01-26T16:57:41.667Z,102365.72
2023-01-26T17:00:16.191Z,102364.91
2023-01-26T17:02:44.455Z,102361.53
2023-01-26T17:05:34.408Z,102354.56
2023-01-26T17:08:04.362Z,102360.81
2023-01-26T17:10:31.706Z,102359.13
2023-01-26T17:12:58.488Z,102360.09
2023-01-26T17:15:30.003Z,102360.25
2023-01-26T17:17:57.305Z,102371.78
2023-01-26T17:20:24.667Z,102376.25
2023-01-26T17:22:51.861Z,102369.97
2023-01-26T17:25:20.567Z,102370.94
2023-01-26T17:27:49.795Z,102367.56
2023-01-26T17:30:17.717Z,102362.28
2023-01-26T17:32:45.067Z,102366.75
2023-01-26T17:35:12.211Z,102367.00
2023-01-26T17:37:39.712Z,102371.44
2023-01-26T17:40:08.486Z,102374.94
2023-01-26T17:42:36.918Z,102369.78
2023-01-26T17:45:08.186Z,102372.41
2023-01-26T17:47:35.410Z,102369.78
2023-01-26T17:50:02.436Z,102371.56
2023-01-26T17:52:31.439Z,102369.03
2023-01-26T17:54:59.205Z,102366.53
2023-01-26T17:57:28.633Z,102366.66
2023-01-26T17:59:56.792Z,102366.66
2023-01-26T18:02:24.873Z,102370.28
2023-01-26T18:04:52.074Z,102365.00
2023-01-26T18:07:19.266Z,102368.47
2023-01-26T18:09:46.423Z,102360.53
2023-01-26T18:12:13.134Z,102355.25
2023-01-26T18:14:39.958Z,102356.22
2023-01-26T18:17:08.238Z,102362.34
2023-01-26T18:19:34.924Z,102366.06
2023-01-26T18:22:04.240Z,102363.31
2023-01-26T18:24:31.653Z,102358.97
2023-01-26T18:26:58.563Z,102357.28
2023-01-26T18:29:25.495Z,102356.34
2023-01-26T18:31:52.776Z,102354.53
2023-01-26T18:34:20.934Z,102358.13
2023-01-26T18:36:52.829Z,102360.91
2023-01-26T18:39:19.412Z,102361.00
2023-01-26T18:41:46.644Z,102355.88
2023-01-26T18:44:13.369Z,102354.19
2023-01-26T18:46:40.585Z,102356.84
2023-01-26T18:49:10.451Z,102362.97
2023-01-26T18:51:38.867Z,102363.19
2023-01-26T18:54:09.726Z,102365.28
2023-01-26T18:56:36.758Z,102367.91
2023-01-26T18:59:04.701Z,102361.78
2023-01-26T19:01:31.611Z,102367.06
2023-01-26T19:03:59.033Z,102358.31
2023-01-26T19:06:28.530Z,102364.44
2023-01-26T19:09:06.467Z,102363.47
2023-01-26T19:11:35.311Z,102359.13
2023-01-26T19:14:03.544Z,102371.41
2023-01-26T19:16:30.498Z,102371.53
2023-01-26T19:18:57.782Z,102369.13
2023-01-26T19:21:25.834Z,102377.03
2023-01-26T19:23:55.872Z,102376.19
2023-01-26T19:26:28.381Z,102369.13
2023-01-26T19:28:55.856Z,102363.81
2023-01-26T19:31:24.959Z,102364.78
2023-01-26T19:33:52.271Z,102374.41
2023-01-26T19:36:19.299Z,102370.78
2023-01-26T19:38:46.731Z,102376.19
2023-01-26T19:41:14.335Z,102366.47
2023-01-26T19:43:42.821Z,102382.34
2023-01-26T19:46:11.835Z,102372.72
2023-01-26T19:48:38.701Z,102369.22
2023-01-26T19:51:08.609Z,102372.72
2023-01-26T19:53:37.265Z,102378.00
2023-01-26T19:56:08.481Z,102377.16
2023-01-26T19:58:35.814Z,102372.03
2023-01-26T20:01:06.583Z,102377.31
2023-01-26T20:03:34.003Z,102384.28
2023-01-26T20:06:00.795Z,102374.66
2023-01-26T20:08:29.066Z,102375.63
2023-01-26T20:11:02.727Z,102373.81
2023-01-26T20:13:29.634Z,102379.13
2023-01-26T20:15:58.310Z,102388.00
2023-01-26T20:18:27.211Z,102382.84
2023-01-26T20:20:55.951Z,102377.53
2023-01-26T20:23:23.771Z,102385.34
2023-01-26T20:25:51.724Z,102382.59
2023-01-26T20:28:18.863Z,102377.31
2023-01-26T20:30:46.593Z,102387.03
2023-01-26T20:33:13.411Z,102384.50
2023-01-26T20:35:43.582Z,102382.59
2023-01-26T20:38:11.057Z,102383.44
2023-01-26T20:40:38.834Z,102387.75
2023-01-26T20:43:05.606Z,102385.94
2023-01-26T20:45:32.683Z,102386.94
2023-01-26T20:47:59.548Z,102385.09
2023-01-26T20:50:26.598Z,102379.22
2023-01-26T20:52:55.479Z,102385.34
2023-01-26T20:55:25.433Z,102385.34
2023-01-26T20:57:52.483Z,102384.50
2023-01-26T21:00:20.716Z,102382.00
2023-01-26T21:02:47.416Z,102387.41
2023-01-26T21:05:15.121Z,102386.69
2023-01-26T21:07:42.081Z,102385.97
2023-01-26T21:10:11.060Z,102383.34
2023-01-26T21:12:38.283Z,102383.44
2023-01-26T21:15:06.249Z,102385.25
2023-01-26T21:17:33.320Z,102379.97
2023-01-26T21:20:00.225Z,102381.91
2023-01-26T21:22:27.118Z,102385.63
2023-01-26T21:24:54.752Z,102377.81
2023-01-26T21:27:22.994Z,102375.16
2023-01-26T21:29:50.274Z,102378.66
2023-01-26T21:32:17.136Z,102377.09
2023-01-26T21:34:43.974Z,102372.19
2023-01-26T21:37:10.814Z,102376.75
2023-01-26T21:39:37.585Z,102375.06
2023-01-26T21:42:04.646Z,102378.81
2023-01-26T21:44:53.612Z,102376.28
2023-01-26T21:47:20.426Z,102374.97
2023-01-26T21:49:48.199Z,102374.22
2023-01-26T21:52:33.490Z,102373.28
2023-01-26T21:55:00.382Z,102373.41
2023-01-26T21:57:46.116Z,102367.16
2023-01-26T22:00:15.105Z,102369.06
2023-01-26T22:02:41.827Z,102372.81
2023-01-26T22:05:09.188Z,102374.59
2023-01-26T22:07:39.056Z,102379.16
2023-01-26T22:10:07.146Z,102379.16
2023-01-26T22:12:34.132Z,102382.75
2023-01-26T22:15:00.996Z,102380.38
2023-01-26T22:17:38.042Z,102380.72
2023-01-26T22:20:05.403Z,102376.28
2023-01-26T22:22:32.265Z,102379.31
2023-01-26T22:24:59.740Z,102377.84
2023-01-26T22:27:26.616Z,102379.78
2023-01-26T22:29:53.433Z,102384.22
2023-01-26T22:32:20.397Z,102379.78
2023-01-26T22:34:48.633Z,102381.47
2023-01-26T22:37:15.572Z,102388.03
2023-01-26T22:39:43.186Z,102392.75
2023-01-26T22:42:10.023Z,102389.38
2023-01-26T22:44:36.722Z,102392.84
2023-01-26T22:47:03.637Z,102390.56
2023-01-26T22:49:30.552Z,102393.44
2023-01-26T22:51:59.016Z,102390.81
2023-01-26T22:54:27.138Z,102394.66
2023-01-26T22:56:54.116Z,102399.94
2023-01-26T22:59:21.120Z,102384.41
2023-01-26T23:01:47.918Z,102388.16
2023-01-26T23:04:14.693Z,102402.31
2023-01-26T23:06:41.460Z,102395.94
2023-01-26T23:09:09.444Z,102400.41
2023-01-26T23:11:36.186Z,102401.84
2023-01-26T23:14:03.048Z,102410.81
2023-01-26T23:16:30.297Z,102405.75
2023-01-26T23:18:58.547Z,102410.19
2023-01-26T23:21:26.317Z,102407.53
2023-01-26T23:23:53.157Z,102415.59
2023-01-26T23:26:22.243Z,102413.81
2023-01-26T23:28:49.431Z,102407.81
2023-01-26T23:31:18.431Z,102408.75
2023-01-26T23:33:45.922Z,102408.03
2023-01-26T23:36:13.764Z,102411.50
2023-01-26T23:38:41.096Z,102409.13
2023-01-26T23:41:12.012Z,102419.41
2023-01-26T23:43:40.403Z,102417.19
2023-01-26T23:46:08.788Z,102416.56
2023-01-26T23:48:35.838Z,102413.44
2023-01-26T23:51:05.100Z,102417.13
2023-01-26T23:53:32.824Z,102424.09
2023-01-26T23:56:03.063Z,102418.09
2023-01-26T23:58:29.818Z,102420.72
